LELO

Logroño-Agoncillo Airport

Logroño, Spain
TAF LELO 230800Z 2309/2318 07004KT CAVOK PROB30 TEMPO 2312/2318 SHRA SCT030TCU
Issued Valid From Valid To
Apr-23 @ 08:00 UTC
(2 hours ago)
Apr-23 @ 09:00 UTC
(38 minutes ago)
Apr-23 @ 18:00 UTC
(in 8 hours)
Apr-23 @ 09:00 to Apr-23 @ 18:00
TAF LELO 230800Z 2309/2318 07004KT CAVOK
Wind Visibility Clouds Conditions
70° at 4 knots 10,000+ meters
  • No significant clouds
Temporary  (Probability 30%) Apr-23 @ 12:00 to Apr-23 @ 18:00
PROB30 TEMPO 2312/2318 SHRA SCT030TCU
Clouds Conditions
  • Scattered at 3,000' AGL
  • Rain
TAF LELO 230800Z 2309/2318 07004KT CAVOK PROB30 TEMPO 2312/2318 SHRA SCT030TCU
Issued Apr-23 @ 08:00 UTC
(2 hours ago)
Valid From Apr-23 @ 09:00 UTC
(38 minutes ago)
Valid To Apr-23 @ 18:00 UTC
(in 8 hours)
Apr-23 @ 09:00 - Apr-23 @ 18:00
Wind Visibility
70° at 4 knots 10,000+ meters
Clouds
  • No significant clouds
Conditions
Probability 30% Temporary Apr-23 @ 12:00 - Apr-23 @ 18:00
Clouds
  • Scattered at 3,000' AGL
Conditions
  • Rain